createdAt,value
2023-04-20T00:02:21.598Z,45.35
2023-04-20T00:04:48.683Z,33.80
2023-04-20T00:07:16.700Z,57.92
2023-04-20T00:09:43.669Z,49.15
2023-04-20T00:12:10.848Z,40.17
2023-04-20T00:14:37.719Z,41.55
2023-04-20T00:17:04.594Z,13.20
2023-04-20T00:19:33.323Z,17.27
2023-04-20T00:22:00.944Z,42.55
2023-04-20T00:24:28.126Z,59.13
2023-04-20T00:26:55.264Z,65.65
2023-04-20T00:29:22.232Z,23.00
2023-04-20T00:31:49.404Z,12.35
2023-04-20T00:34:16.337Z,35.03
2023-04-20T00:36:43.624Z,61.42
2023-04-20T00:39:10.961Z,24.05
2023-04-20T00:41:38.080Z,22.50
2023-04-20T00:44:08.052Z,50.60
2023-04-20T00:46:34.866Z,55.53
2023-04-20T00:49:01.792Z,52.42
2023-04-20T00:51:29.318Z,34.70
2023-04-20T00:53:56.830Z,18.70
2023-04-20T00:56:23.824Z,45.30
2023-04-20T00:58:50.773Z,17.92
2023-04-20T01:01:18.324Z,42.58
2023-04-20T01:03:46.178Z,27.88
2023-04-20T01:06:17.299Z,26.40
2023-04-20T01:08:49.611Z,34.38
2023-04-20T01:11:16.731Z,53.47
2023-04-20T01:13:43.997Z,57.88
2023-04-20T01:16:12.161Z,51.58
2023-04-20T01:18:48.293Z,28.88
2023-04-20T01:21:19.180Z,13.80
2023-04-20T01:23:46.472Z,9.68
2023-04-20T01:26:16.766Z,35.13
2023-04-20T01:28:44.789Z,8.80
2023-04-20T01:31:13.239Z,14.45
2023-04-20T01:33:40.883Z,10.68
2023-04-20T01:36:09.463Z,12.05
2023-04-20T01:38:37.342Z,11.40
2023-04-20T01:41:08.364Z,6.32
2023-04-20T01:43:36.962Z,8.45
2023-04-20T01:46:04.963Z,6.03
2023-04-20T01:48:32.596Z,5.75
2023-04-20T01:50:59.496Z,6.55
2023-04-20T01:53:27.002Z,5.68
2023-04-20T01:55:54.075Z,11.15
2023-04-20T01:58:20.962Z,12.65
2023-04-20T02:00:47.837Z,8.88
2023-04-20T02:03:14.804Z,7.63
2023-04-20T02:05:41.825Z,6.35
2023-04-20T02:08:08.719Z,9.82
2023-04-20T02:10:35.811Z,6.88
2023-04-20T02:13:02.704Z,8.77
2023-04-20T02:15:29.570Z,6.97
2023-04-20T02:17:57.411Z,8.32
2023-04-20T02:20:24.683Z,8.60
2023-04-20T02:22:51.521Z,9.07
2023-04-20T02:25:18.629Z,8.18
2023-04-20T02:27:45.482Z,8.80
2023-04-20T02:30:13.021Z,8.52
2023-04-20T02:32:39.875Z,6.63
2023-04-20T02:35:07.092Z,6.15
2023-04-20T02:37:33.968Z,10.57
2023-04-20T02:40:01.093Z,8.20
2023-04-20T02:42:27.952Z,6.70
2023-04-20T02:44:54.811Z,7.75
2023-04-20T02:47:21.718Z,5.55
2023-04-20T02:49:48.532Z,6.50
2023-04-20T02:52:15.589Z,10.55
2023-04-20T02:54:42.434Z,10.15
2023-04-20T02:57:10.972Z,13.70
2023-04-20T02:59:38.608Z,6.82
2023-04-20T03:02:05.819Z,10.13
2023-04-20T03:04:33.025Z,7.93
2023-04-20T03:07:01.377Z,7.93
2023-04-20T03:09:28.301Z,7.78
2023-04-20T03:11:55.293Z,9.85
2023-04-20T03:14:22.150Z,6.13
2023-04-20T03:16:49.009Z,7.15
2023-04-20T03:19:16.629Z,6.50
2023-04-20T03:21:45.457Z,8.18
2023-04-20T03:24:12.354Z,6.65
2023-04-20T03:26:39.208Z,5.72
2023-04-20T03:29:06.027Z,8.18
2023-04-20T03:31:32.978Z,8.68
2023-04-20T03:34:00.246Z,9.05
2023-04-20T03:36:28.372Z,7.07
2023-04-20T03:38:55.466Z,8.85
2023-04-20T03:41:22.237Z,8.88
2023-04-20T03:43:49.038Z,8.63
2023-04-20T03:46:16.037Z,10.00
2023-04-20T03:48:43.159Z,8.95
2023-04-20T03:51:09.970Z,11.00
2023-04-20T03:53:38.964Z,9.30
2023-04-20T03:56:07.551Z,6.80
2023-04-20T03:58:34.391Z,11.23
2023-04-20T04:01:09.438Z,8.85
2023-04-20T04:03:37.480Z,7.28
2023-04-20T04:06:04.922Z,6.45
2023-04-20T04:08:32.277Z,7.50
2023-04-20T04:11:00.662Z,10.95
2023-04-20T04:13:27.669Z,8.38
2023-04-20T04:15:54.509Z,8.48
2023-04-20T04:18:22.309Z,9.07
2023-04-20T04:20:49.274Z,12.02
2023-04-20T04:23:16.372Z,7.00
2023-04-20T04:25:43.331Z,6.60
2023-04-20T04:28:10.703Z,7.30
2023-04-20T04:30:37.583Z,7.57
2023-04-20T04:33:05.072Z,11.75
2023-04-20T04:35:34.313Z,11.10
2023-04-20T04:38:01.253Z,7.32
2023-04-20T04:40:28.210Z,9.80
2023-04-20T04:42:55.581Z,8.90
2023-04-20T04:45:25.229Z,7.97
2023-04-20T04:47:53.999Z,10.50
2023-04-20T04:50:22.042Z,12.18
2023-04-20T04:52:48.928Z,7.60
2023-04-20T04:55:16.634Z,8.82
2023-04-20T04:57:43.922Z,15.48
2023-04-20T05:00:12.560Z,9.27
2023-04-20T05:02:40.342Z,10.65
2023-04-20T05:05:11.595Z,10.93
2023-04-20T05:07:40.013Z,10.82
2023-04-20T05:10:08.103Z,6.97
2023-04-20T05:12:35.029Z,8.77
2023-04-20T05:15:02.012Z,7.43
2023-04-20T05:17:28.861Z,9.88
2023-04-20T05:19:55.810Z,8.52
2023-04-20T05:22:22.679Z,10.23
2023-04-20T05:24:49.536Z,8.95
2023-04-20T05:27:16.487Z,10.93
2023-04-20T05:29:43.332Z,8.98
2023-04-20T05:32:10.259Z,7.63
2023-04-20T05:34:37.141Z,12.20
2023-04-20T05:37:06.107Z,12.95
2023-04-20T05:39:33.038Z,9.50
2023-04-20T05:41:59.814Z,15.07
2023-04-20T05:44:26.813Z,9.82
2023-04-20T05:46:53.619Z,10.48
2023-04-20T05:49:20.547Z,13.23
2023-04-20T05:51:47.361Z,9.30
2023-04-20T05:54:14.254Z,8.80
2023-04-20T05:56:41.039Z,10.30
2023-04-20T05:59:08.574Z,9.15
2023-04-20T06:01:35.529Z,11.10
2023-04-20T06:04:02.585Z,10.07
2023-04-20T06:06:29.630Z,11.48
2023-04-20T06:08:58.090Z,9.07
2023-04-20T06:11:25.059Z,9.65
2023-04-20T06:13:51.979Z,13.45
2023-04-20T06:16:18.960Z,11.27
2023-04-20T06:18:45.825Z,10.00
2023-04-20T06:21:12.783Z,10.57
2023-04-20T06:23:41.316Z,10.25
2023-04-20T06:26:10.230Z,8.80
2023-04-20T06:28:37.912Z,11.05
2023-04-20T06:31:05.972Z,10.80
2023-04-20T06:33:33.276Z,9.85
2023-04-20T06:36:00.167Z,12.45
2023-04-20T06:38:27.267Z,10.25
2023-04-20T06:40:54.173Z,10.18
2023-04-20T06:43:21.283Z,10.82
2023-04-20T06:45:48.173Z,10.63
2023-04-20T06:48:30.892Z,10.38
2023-04-20T06:50:59.558Z,10.05
2023-04-20T06:53:26.460Z,9.52
2023-04-20T06:55:56.919Z,10.88
2023-04-20T06:58:23.933Z,10.25
2023-04-20T07:00:51.020Z,9.82
2023-04-20T07:03:19.222Z,9.15
2023-04-20T07:05:46.754Z,9.85
2023-04-20T07:08:15.578Z,9.90
2023-04-20T07:10:42.455Z,12.70
2023-04-20T07:13:09.336Z,18.15
2023-04-20T07:15:36.277Z,7.65
2023-04-20T07:18:03.232Z,13.18
2023-04-20T07:20:31.159Z,9.15
2023-04-20T07:22:57.998Z,9.82
2023-04-20T07:25:25.628Z,9.80
2023-04-20T07:27:52.928Z,11.70
2023-04-20T07:30:19.866Z,9.38
2023-04-20T07:32:46.759Z,9.27
2023-04-20T07:35:13.596Z,9.27
2023-04-20T07:37:40.721Z,10.77
2023-04-20T07:40:09.610Z,9.43
2023-04-20T07:42:37.486Z,13.23
2023-04-20T07:45:11.553Z,11.23
2023-04-20T07:47:39.513Z,10.25
2023-04-20T07:50:07.679Z,13.27
2023-04-20T07:52:34.694Z,11.02
2023-04-20T07:55:01.651Z,9.40
2023-04-20T07:57:29.443Z,12.98
2023-04-20T07:59:56.278Z,9.93
2023-04-20T08:02:23.258Z,13.38
2023-04-20T08:04:50.421Z,16.02
2023-04-20T08:07:18.006Z,13.10
2023-04-20T08:09:45.314Z,11.30
2023-04-20T08:12:12.153Z,8.27
2023-04-20T08:14:39.257Z,13.18
2023-04-20T08:17:06.194Z,10.70
2023-04-20T08:19:33.259Z,10.43
2023-04-20T08:22:01.383Z,9.48
2023-04-20T08:24:29.364Z,9.60
2023-04-20T08:26:56.583Z,9.70
2023-04-20T08:29:23.404Z,12.10
2023-04-20T08:31:51.709Z,10.13
2023-04-20T08:34:18.933Z,10.38
2023-04-20T08:36:46.397Z,10.40
2023-04-20T08:39:20.688Z,10.35
2023-04-20T08:41:48.151Z,10.45
2023-04-20T08:44:15.137Z,10.27
2023-04-20T08:46:46.880Z,10.27
2023-04-20T08:49:17.006Z,9.75
2023-04-20T08:51:45.376Z,10.15
2023-04-20T08:54:13.033Z,9.30
2023-04-20T08:56:46.162Z,13.07
2023-04-20T08:59:14.462Z,11.82
2023-04-20T09:01:42.795Z,12.95
2023-04-20T09:04:22.653Z,16.60
2023-04-20T09:06:52.364Z,15.80
2023-04-20T09:09:24.212Z,11.05
2023-04-20T09:12:07.696Z,10.45
2023-04-20T09:14:46.099Z,14.70
2023-04-20T09:17:16.013Z,9.77
2023-04-20T09:19:53.047Z,12.82
2023-04-20T09:22:34.728Z,10.70
2023-04-20T09:25:19.226Z,10.70
2023-04-20T09:28:01.324Z,14.60
2023-04-20T09:30:46.733Z,12.43
2023-04-20T09:33:14.698Z,12.23
2023-04-20T09:35:43.206Z,13.13
2023-04-20T09:38:14.762Z,12.82
2023-04-20T09:40:41.747Z,14.13
2023-04-20T09:43:20.087Z,18.80
2023-04-20T09:45:47.342Z,15.35
2023-04-20T09:48:18.948Z,16.67
2023-04-20T09:50:49.943Z,12.23
2023-04-20T09:53:18.585Z,15.50
2023-04-20T09:55:50.290Z,14.18
2023-04-20T09:58:21.193Z,11.02
2023-04-20T10:00:49.059Z,14.38
2023-04-20T10:03:20.373Z,12.48
2023-04-20T10:05:47.572Z,13.45
2023-04-20T10:08:14.450Z,11.02
2023-04-20T10:10:50.264Z,16.50
2023-04-20T10:13:19.557Z,11.80
2023-04-20T10:15:46.752Z,10.88
2023-04-20T10:18:24.595Z,11.10
2023-04-20T10:21:03.699Z,10.98
2023-04-20T10:23:30.606Z,15.43
2023-04-20T10:26:00.662Z,17.02
2023-04-20T10:28:41.854Z,14.85
2023-04-20T10:31:12.990Z,13.50
2023-04-20T10:33:56.570Z,13.35
2023-04-20T10:36:33.982Z,12.18
2023-04-20T10:39:04.915Z,12.57
2023-04-20T10:41:31.771Z,12.95
2023-04-20T10:44:10.093Z,13.68
2023-04-20T10:46:37.013Z,16.55
2023-04-20T10:49:04.025Z,12.40
2023-04-20T10:51:31.476Z,15.32
2023-04-20T10:54:05.405Z,13.30
2023-04-20T10:56:49.011Z,11.23
2023-04-20T10:59:19.282Z,14.95
2023-04-20T11:01:47.154Z,15.07
2023-04-20T11:04:18.395Z,14.60
2023-04-20T11:06:48.443Z,14.23
2023-04-20T11:09:26.152Z,16.05
2023-04-20T11:12:04.117Z,12.10
2023-04-20T11:14:38.337Z,12.88
2023-04-20T11:17:06.500Z,15.75
2023-04-20T11:19:36.182Z,19.05
2023-04-20T11:22:06.094Z,16.25
2023-04-20T11:24:34.318Z,13.85
2023-04-20T11:27:02.273Z,14.43
2023-04-20T11:29:39.912Z,14.10
2023-04-20T11:32:11.761Z,15.50
2023-04-20T11:34:39.983Z,13.55
2023-04-20T11:37:10.521Z,17.25
2023-04-20T11:39:38.153Z,16.00
2023-04-20T11:42:06.108Z,13.13
2023-04-20T11:44:34.041Z,14.30
2023-04-20T11:47:01.789Z,12.70
2023-04-20T11:49:29.376Z,16.15
2023-04-20T11:51:56.246Z,29.02
2023-04-20T11:54:24.031Z,15.27
2023-04-20T11:56:51.458Z,15.50
2023-04-20T11:59:20.143Z,14.77
2023-04-20T12:01:48.182Z,15.32
2023-04-20T12:04:16.090Z,13.82
2023-04-20T12:06:43.968Z,14.65
2023-04-20T12:09:10.978Z,15.20
2023-04-20T12:11:37.811Z,14.45
2023-04-20T12:14:05.112Z,16.58
2023-04-20T12:16:32.125Z,13.73
2023-04-20T12:18:58.967Z,16.10
2023-04-20T12:21:25.823Z,15.23
2023-04-20T12:23:52.904Z,15.35
2023-04-20T12:26:19.806Z,18.48
2023-04-20T12:28:46.603Z,14.93
2023-04-20T12:31:13.511Z,13.93
2023-04-20T12:33:40.472Z,21.10
2023-04-20T12:36:07.576Z,13.15
2023-04-20T12:38:34.424Z,15.52
2023-04-20T12:41:01.327Z,18.80
2023-04-20T12:43:28.675Z,14.48
2023-04-20T12:45:55.503Z,14.27
2023-04-20T12:48:22.585Z,13.05
2023-04-20T12:50:50.779Z,12.85
2023-04-20T12:53:17.669Z,14.35
2023-04-20T12:55:44.518Z,15.18
2023-04-20T12:58:11.334Z,15.15
2023-04-20T13:00:38.305Z,14.23
2023-04-20T13:03:05.235Z,13.52
2023-04-20T13:05:32.290Z,13.82
2023-04-20T13:07:59.598Z,13.10
2023-04-20T13:10:26.667Z,14.95
2023-04-20T13:12:53.503Z,11.38
2023-04-20T13:15:31.731Z,13.85
2023-04-20T13:18:05.859Z,12.32
2023-04-20T13:20:33.059Z,15.63
2023-04-20T13:23:01.429Z,15.95
2023-04-20T13:25:32.573Z,13.38
2023-04-20T13:28:01.872Z,18.00
2023-04-20T13:30:29.067Z,14.07
2023-04-20T13:32:56.060Z,15.00
2023-04-20T13:35:23.641Z,16.08
2023-04-20T13:37:50.888Z,15.25
2023-04-20T13:40:17.746Z,15.98
2023-04-20T13:42:44.722Z,18.02
2023-04-20T13:45:12.242Z,16.67
2023-04-20T13:47:39.958Z,18.25
2023-04-20T13:50:07.736Z,14.38
2023-04-20T13:52:35.421Z,16.00
2023-04-20T13:55:02.283Z,16.45
2023-04-20T13:57:31.593Z,16.40
2023-04-20T14:00:00.757Z,15.73
2023-04-20T14:02:28.585Z,14.45
2023-04-20T14:04:56.430Z,15.07
2023-04-20T14:07:23.536Z,20.02
2023-04-20T14:09:51.008Z,16.45
2023-04-20T14:12:17.990Z,16.92
2023-04-20T14:14:44.878Z,14.07
2023-04-20T14:17:11.792Z,16.90
2023-04-20T14:19:38.624Z,17.10
2023-04-20T14:22:05.519Z,17.45
2023-04-20T14:24:32.433Z,18.83
2023-04-20T14:26:59.930Z,14.20
2023-04-20T14:29:26.740Z,16.42
2023-04-20T14:31:53.722Z,14.10
2023-04-20T14:34:20.631Z,17.27
2023-04-20T14:36:48.299Z,14.43
2023-04-20T14:39:15.589Z,16.20
2023-04-20T14:41:42.408Z,15.82
2023-04-20T14:44:09.748Z,15.65
2023-04-20T14:46:36.742Z,16.17
2023-04-20T14:49:03.615Z,16.25
2023-04-20T14:51:30.968Z,17.75
2023-04-20T14:53:58.079Z,16.00
2023-04-20T14:56:25.214Z,17.65
2023-04-20T14:58:52.378Z,17.35
2023-04-20T15:01:19.312Z,18.23
2023-04-20T15:03:46.544Z,15.95
2023-04-20T15:06:13.589Z,17.75
2023-04-20T15:08:40.489Z,18.30
2023-04-20T15:11:07.655Z,14.88
2023-04-20T15:13:34.541Z,17.88
2023-04-20T15:16:01.777Z,19.13
2023-04-20T15:18:28.571Z,14.75
2023-04-20T15:20:55.497Z,19.52
2023-04-20T15:23:22.437Z,15.40
2023-04-20T15:25:49.332Z,16.42
2023-04-20T15:28:16.609Z,16.77
2023-04-20T15:30:44.392Z,17.17
2023-04-20T15:33:11.446Z,20.92
2023-04-20T15:35:38.632Z,16.45
2023-04-20T15:38:05.557Z,19.33
2023-04-20T15:40:32.438Z,17.50
2023-04-20T15:42:59.431Z,15.02
2023-04-20T15:45:26.316Z,17.23
2023-04-20T15:47:53.359Z,15.80
2023-04-20T15:50:20.635Z,19.52
2023-04-20T15:52:50.795Z,19.40
2023-04-20T15:55:17.657Z,20.92
2023-04-20T15:57:44.911Z,20.55
2023-04-20T16:00:13.498Z,20.13
2023-04-20T16:02:40.874Z,20.23
2023-04-20T16:05:09.126Z,17.73
2023-04-20T16:07:36.243Z,16.20
2023-04-20T16:10:03.269Z,17.27
2023-04-20T16:12:30.144Z,20.40
2023-04-20T16:14:57.410Z,19.05
2023-04-20T16:17:24.445Z,22.85
2023-04-20T16:19:51.395Z,30.73
2023-04-20T16:22:18.311Z,21.25
2023-04-20T16:24:45.267Z,17.30
2023-04-20T16:27:12.190Z,15.30
2023-04-20T16:29:39.039Z,17.98
2023-04-20T16:32:06.720Z,14.77
2023-04-20T16:34:33.643Z,16.45
2023-04-20T16:37:00.758Z,17.73
2023-04-20T16:39:29.724Z,16.98
2023-04-20T16:41:57.228Z,16.92
2023-04-20T16:44:24.210Z,16.25
2023-04-20T16:46:51.754Z,21.08
2023-04-20T16:49:18.813Z,18.83
2023-04-20T16:51:45.928Z,18.10
2023-04-20T16:54:12.830Z,22.85
2023-04-20T16:56:40.745Z,18.65
2023-04-20T16:59:08.058Z,25.25
2023-04-20T17:01:35.061Z,25.75
2023-04-20T17:04:02.324Z,26.42
2023-04-20T17:06:29.529Z,20.75
2023-04-20T17:09:01.252Z,22.25
2023-04-20T17:11:28.231Z,19.05
2023-04-20T17:13:55.205Z,23.00
2023-04-20T17:16:22.256Z,17.27
2023-04-20T17:18:49.164Z,18.70
2023-04-20T17:21:16.235Z,18.90
2023-04-20T17:23:43.123Z,20.98
2023-04-20T17:26:10.018Z,20.65
2023-04-20T17:28:36.994Z,20.95
2023-04-20T17:31:03.888Z,23.23
2023-04-20T17:33:30.710Z,27.48
2023-04-20T17:35:57.697Z,23.70
2023-04-20T17:38:24.557Z,21.42
2023-04-20T17:40:51.531Z,23.83
2023-04-20T17:43:18.924Z,22.40
2023-04-20T17:45:50.109Z,18.55
2023-04-20T17:48:16.989Z,21.92
2023-04-20T17:50:48.284Z,22.00
2023-04-20T17:53:15.119Z,20.80
2023-04-20T17:55:41.923Z,19.35
2023-04-20T17:58:08.802Z,18.77
2023-04-20T18:00:35.643Z,23.67
2023-04-20T18:03:02.776Z,20.27
2023-04-20T18:05:29.925Z,23.33
2023-04-20T18:07:59.894Z,23.25
2023-04-20T18:10:26.801Z,20.70
2023-04-20T18:12:53.968Z,23.88
2023-04-20T18:15:21.107Z,22.35
2023-04-20T18:17:49.295Z,21.67
2023-04-20T18:20:16.219Z,24.08
2023-04-20T18:22:43.116Z,20.55
2023-04-20T18:25:10.067Z,20.63
2023-04-20T18:27:38.521Z,23.70
2023-04-20T18:30:06.871Z,23.58
2023-04-20T18:32:36.207Z,24.38
2023-04-20T18:35:04.004Z,22.10
2023-04-20T18:37:31.002Z,20.67
2023-04-20T18:39:58.697Z,22.40
2023-04-20T18:42:26.021Z,22.75
2023-04-20T18:44:56.378Z,22.25
2023-04-20T18:47:25.469Z,20.83
2023-04-20T18:49:53.167Z,24.20
2023-04-20T18:52:20.407Z,23.13
2023-04-20T18:54:47.565Z,22.33
2023-04-20T18:57:14.694Z,21.02
2023-04-20T18:59:41.566Z,23.40
2023-04-20T19:02:10.034Z,22.50
2023-04-20T19:04:36.954Z,22.20
2023-04-20T19:07:03.826Z,22.08
2023-04-20T19:09:30.696Z,21.20
2023-04-20T19:11:58.504Z,24.05
2023-04-20T19:14:25.398Z,20.67
2023-04-20T19:16:52.352Z,22.85
2023-04-20T19:19:19.272Z,25.48
2023-04-20T19:21:46.210Z,25.65
2023-04-20T19:24:14.674Z,25.45
2023-04-20T19:26:41.656Z,24.27
2023-04-20T19:29:08.489Z,23.23
2023-04-20T19:31:37.893Z,24.38
2023-04-20T19:34:04.847Z,24.33
2023-04-20T19:36:32.225Z,24.73
2023-04-20T19:38:59.252Z,29.60
2023-04-20T19:41:26.272Z,27.52
2023-04-20T19:43:53.475Z,27.00
2023-04-20T19:46:21.460Z,28.80
2023-04-20T19:48:48.669Z,29.80
2023-04-20T19:51:15.708Z,28.30
2023-04-20T19:53:42.764Z,27.45
2023-04-20T19:56:09.582Z,28.65
2023-04-20T19:58:36.444Z,29.70
2023-04-20T20:01:04.613Z,29.80
2023-04-20T20:03:31.602Z,29.45
2023-04-20T20:05:58.621Z,26.02
2023-04-20T20:08:25.535Z,30.70
2023-04-20T20:10:52.870Z,27.92
2023-04-20T20:13:19.760Z,28.27
2023-04-20T20:15:46.660Z,30.13
2023-04-20T20:18:14.134Z,29.70
2023-04-20T20:20:41.029Z,25.15
2023-04-20T20:23:07.921Z,30.25
2023-04-20T20:25:35.380Z,30.42
2023-04-20T20:28:02.328Z,26.38
2023-04-20T20:30:29.506Z,28.60
2023-04-20T20:32:58.814Z,26.25
2023-04-20T20:35:33.282Z,29.13
2023-04-20T20:38:01.038Z,29.88
2023-04-20T20:40:27.981Z,30.05
2023-04-20T20:42:54.799Z,26.85
2023-04-20T20:45:21.941Z,27.63
2023-04-20T20:47:49.661Z,29.17
2023-04-20T20:50:17.086Z,28.58
2023-04-20T20:52:43.985Z,27.98
2023-04-20T20:55:11.201Z,29.77
2023-04-20T20:57:38.429Z,29.70
2023-04-20T21:00:08.424Z,30.40
2023-04-20T21:02:36.494Z,26.48
2023-04-20T21:05:04.465Z,29.48
2023-04-20T21:07:31.301Z,27.27
2023-04-20T21:09:58.187Z,27.67
2023-04-20T21:12:25.429Z,28.38
2023-04-20T21:14:52.304Z,27.50
2023-04-20T21:17:19.815Z,24.38
2023-04-20T21:19:46.652Z,24.05
2023-04-20T21:22:13.536Z,27.55
2023-04-20T21:24:40.661Z,23.35
2023-04-20T21:27:07.516Z,24.33
2023-04-20T21:29:34.400Z,25.75
2023-04-20T21:32:01.297Z,26.27
2023-04-20T21:34:28.274Z,23.70
2023-04-20T21:36:55.158Z,24.73
2023-04-20T21:39:22.189Z,24.02
2023-04-20T21:41:49.021Z,29.65
2023-04-20T21:44:15.837Z,25.70
2023-04-20T21:46:42.736Z,24.75
2023-04-20T21:49:09.977Z,26.38
2023-04-20T21:51:36.784Z,24.92
2023-04-20T21:54:03.876Z,23.75
2023-04-20T21:56:30.777Z,26.95
2023-04-20T21:58:57.618Z,24.13
2023-04-20T22:01:24.551Z,23.48
2023-04-20T22:03:52.033Z,22.60
2023-04-20T22:06:19.061Z,23.45
2023-04-20T22:08:45.960Z,23.08
2023-04-20T22:11:13.151Z,22.90
2023-04-20T22:13:39.961Z,23.70
2023-04-20T22:16:07.174Z,23.65
2023-04-20T22:18:34.072Z,20.73
2023-04-20T22:21:00.993Z,20.55
2023-04-20T22:23:27.817Z,20.67
2023-04-20T22:25:54.869Z,22.90
2023-04-20T22:28:21.744Z,21.80
2023-04-20T22:30:48.704Z,20.33
2023-04-20T22:33:16.229Z,21.77
2023-04-20T22:35:43.095Z,20.17
2023-04-20T22:38:09.933Z,22.05
2023-04-20T22:40:36.786Z,21.70
2023-04-20T22:43:03.713Z,19.52
2023-04-20T22:45:30.509Z,20.10
2023-04-20T22:47:57.413Z,18.58
2023-04-20T22:50:24.636Z,23.52
2023-04-20T22:52:51.503Z,25.80
2023-04-20T22:55:18.354Z,19.90
2023-04-20T22:57:45.208Z,24.55
2023-04-20T23:00:14.004Z,24.77
2023-04-20T23:02:41.840Z,23.25
2023-04-20T23:05:09.683Z,26.27
2023-04-20T23:07:37.526Z,24.92
2023-04-20T23:10:06.134Z,22.17
2023-04-20T23:12:33.312Z,23.25
2023-04-20T23:15:02.787Z,22.88
2023-04-20T23:17:29.751Z,19.88
2023-04-20T23:19:56.735Z,21.13
2023-04-20T23:22:24.282Z,22.83
2023-04-20T23:24:51.274Z,21.95
2023-04-20T23:27:18.109Z,20.38
2023-04-20T23:29:45.303Z,18.13
2023-04-20T23:32:12.134Z,19.13
2023-04-20T23:34:39.047Z,19.17
2023-04-20T23:37:06.154Z,18.88
2023-04-20T23:39:39.383Z,20.20
2023-04-20T23:42:06.280Z,23.48
2023-04-20T23:44:33.224Z,22.92
2023-04-20T23:47:00.033Z,25.88
2023-04-20T23:49:26.941Z,22.63
2023-04-20T23:51:53.964Z,25.27
2023-04-20T23:54:20.852Z,27.52
2023-04-20T23:56:47.704Z,24.85
2023-04-20T23:59:14.500Z,26.60
